Contact Info

Augusta Flying Club, Inc

KDNL 112053Z AUTO 04006KT 10SM CLR 12/03 A3042 RMK AO2 SLP301 T01220028 53019 TSNO


TAF AMD KDNL 112047Z 1121/1218 03007KT P6SM SCT020 BKN200 FM120200 VRB04KT P6SM SCT200 FM121500 07010G18KT P6SM SCT200

info@augustaflyingclub.com

Send us a message